sensor_id;sensor_type;location;lat;lon;timestamp;temperature;humidity
24176;DHT22;12324;48.146;11.502;2023-04-01T00:01:12;7.50;99.90
24176;DHT22;12324;48.146;11.502;2023-04-01T00:03:43;7.50;99.90
24176;DHT22;12324;48.146;11.502;2023-04-01T00:06:16;7.40;99.90
24176;DHT22;12324;48.146;11.502;2023-04-01T00:08:43;7.40;99.90
24176;DHT22;12324;48.146;11.502;2023-04-01T00:11:10;7.40;99.90
24176;DHT22;12324;48.146;11.502;2023-04-01T00:13:37;7.40;99.90
24176;DHT22;12324;48.146;11.502;2023-04-01T00:16:04;7.40;99.90
24176;DHT22;12324;48.146;11.502;2023-04-01T00:18:45;7.40;99.90
24176;DHT22;12324;48.146;11.502;2023-04-01T00:21:13;7.40;99.90
24176;DHT22;12324;48.146;11.502;2023-04-01T00:23:40;7.40;99.90
24176;DHT22;12324;48.146;11.502;2023-04-01T00:26:07;7.40;99.90
24176;DHT22;12324;48.146;11.502;2023-04-01T00:28:34;7.30;99.90
24176;DHT22;12324;48.146;11.502;2023-04-01T00:31:06;7.30;99.90
24176;DHT22;12324;48.146;11.502;2023-04-01T00:33:33;7.30;99.90
24176;DHT22;12324;48.146;11.502;2023-04-01T00:36:14;7.20;99.90
24176;DHT22;12324;48.146;11.502;2023-04-01T00:38:41;7.20;99.90
24176;DHT22;12324;48.146;11.502;2023-04-01T00:41:11;7.20;99.90
24176;DHT22;12324;48.146;11.502;2023-04-01T00:43:43;7.20;99.90
24176;DHT22;12324;48.146;11.502;2023-04-01T00:46:10;7.20;99.90
24176;DHT22;12324;48.146;11.502;2023-04-01T00:48:41;7.20;99.90
24176;DHT22;12324;48.146;11.502;2023-04-01T00:51:13;7.20;99.90
24176;DHT22;12324;48.146;11.502;2023-04-01T00:53:44;7.10;99.90
24176;DHT22;12324;48.146;11.502;2023-04-01T00:56:21;7.20;99.90
24176;DHT22;12324;48.146;11.502;2023-04-01T00:58:52;7.20;99.90
24176;DHT22;12324;48.146;11.502;2023-04-01T01:01:21;7.20;99.90
24176;DHT22;12324;48.146;11.502;2023-04-01T01:03:49;7.20;99.90
24176;DHT22;12324;48.146;11.502;2023-04-01T01:17:51;7.40;99.90
24176;DHT22;12324;48.146;11.502;2023-04-01T01:29:41;7.50;99.90
24176;DHT22;12324;48.146;11.502;2023-04-01T01:37:41;7.50;99.90
24176;DHT22;12324;48.146;11.502;2023-04-01T01:40:11;7.50;99.90
24176;DHT22;12324;48.146;11.502;2023-04-01T01:42:42;7.50;99.90
24176;DHT22;12324;48.146;11.502;2023-04-01T01:45:12;7.50;99.90
24176;DHT22;12324;48.146;11.502;2023-04-01T01:47:41;7.50;99.90
24176;DHT22;12324;48.146;11.502;2023-04-01T01:50:09;7.50;99.90
24176;DHT22;12324;48.146;11.502;2023-04-01T01:52:37;7.50;99.90
24176;DHT22;12324;48.146;11.502;2023-04-01T01:55:44;7.50;99.90
24176;DHT22;12324;48.146;11.502;2023-04-01T01:58:12;7.50;99.90
24176;DHT22;12324;48.146;11.502;2023-04-01T02:00:44;7.60;99.90
24176;DHT22;12324;48.146;11.502;2023-04-01T02:03:12;7.60;99.90
24176;DHT22;12324;48.146;11.502;2023-04-01T02:05:40;7.60;99.90
24176;DHT22;12324;48.146;11.502;2023-04-01T02:08:12;7.60;99.90
24176;DHT22;12324;48.146;11.502;2023-04-01T02:10:43;7.60;99.90
24176;DHT22;12324;48.146;11.502;2023-04-01T02:16:05;7.60;99.90
24176;DHT22;12324;48.146;11.502;2023-04-01T02:18:35;7.60;99.90
24176;DHT22;12324;48.146;11.502;2023-04-01T02:21:05;7.60;99.90
24176;DHT22;12324;48.146;11.502;2023-04-01T02:23:33;7.60;99.90
24176;DHT22;12324;48.146;11.502;2023-04-01T02:26:04;7.60;99.90
24176;DHT22;12324;48.146;11.502;2023-04-01T02:28:33;7.50;99.90
24176;DHT22;12324;48.146;11.502;2023-04-01T02:31:01;7.50;99.90
24176;DHT22;12324;48.146;11.502;2023-04-01T02:33:30;7.50;99.90
24176;DHT22;12324;48.146;11.502;2023-04-01T02:35:58;7.50;99.90
24176;DHT22;12324;48.146;11.502;2023-04-01T02:38:24;7.50;99.90
24176;DHT22;12324;48.146;11.502;2023-04-01T02:40:59;7.50;99.90
24176;DHT22;12324;48.146;11.502;2023-04-01T02:43:27;7.50;99.90
24176;DHT22;12324;48.146;11.502;2023-04-01T02:45:54;7.50;99.90
24176;DHT22;12324;48.146;11.502;2023-04-01T02:48:21;7.50;99.90
24176;DHT22;12324;48.146;11.502;2023-04-01T02:50:48;7.50;99.90
24176;DHT22;12324;48.146;11.502;2023-04-01T02:53:15;7.40;99.90
24176;DHT22;12324;48.146;11.502;2023-04-01T02:55:42;7.40;99.90
24176;DHT22;12324;48.146;11.502;2023-04-01T02:58:08;7.40;99.90
24176;DHT22;12324;48.146;11.502;2023-04-01T03:00:35;7.40;99.90
24176;DHT22;12324;48.146;11.502;2023-04-01T03:03:02;7.40;99.90
24176;DHT22;12324;48.146;11.502;2023-04-01T03:05:29;7.40;99.90
24176;DHT22;12324;48.146;11.502;2023-04-01T03:07:57;7.40;99.90
24176;DHT22;12324;48.146;11.502;2023-04-01T03:10:23;7.40;99.90
24176;DHT22;12324;48.146;11.502;2023-04-01T03:12:50;7.30;99.90
24176;DHT22;12324;48.146;11.502;2023-04-01T03:15:17;7.30;99.90
24176;DHT22;12324;48.146;11.502;2023-04-01T03:17:43;7.40;99.90
24176;DHT22;12324;48.146;11.502;2023-04-01T03:20:11;7.30;99.90
24176;DHT22;12324;48.146;11.502;2023-04-01T03:22:38;7.40;99.90
24176;DHT22;12324;48.146;11.502;2023-04-01T03:25:08;7.30;99.90
24176;DHT22;12324;48.146;11.502;2023-04-01T03:27:36;7.20;99.90
24176;DHT22;12324;48.146;11.502;2023-04-01T03:30:04;7.20;99.90
24176;DHT22;12324;48.146;11.502;2023-04-01T03:32:31;7.20;99.90
24176;DHT22;12324;48.146;11.502;2023-04-01T03:34:58;7.10;99.90
24176;DHT22;12324;48.146;11.502;2023-04-01T03:37:25;7.10;99.90
24176;DHT22;12324;48.146;11.502;2023-04-01T03:39:51;7.10;99.90
24176;DHT22;12324;48.146;11.502;2023-04-01T03:42:18;7.00;99.90
24176;DHT22;12324;48.146;11.502;2023-04-01T03:44:45;7.00;99.90
24176;DHT22;12324;48.146;11.502;2023-04-01T03:47:11;7.00;99.90
24176;DHT22;12324;48.146;11.502;2023-04-01T03:49:38;7.00;99.90
24176;DHT22;12324;48.146;11.502;2023-04-01T03:52:09;7.00;99.90
24176;DHT22;12324;48.146;11.502;2023-04-01T03:54:36;6.90;99.90
24176;DHT22;12324;48.146;11.502;2023-04-01T03:57:02;6.90;99.90
24176;DHT22;12324;48.146;11.502;2023-04-01T03:59:29;6.90;99.90
24176;DHT22;12324;48.146;11.502;2023-04-01T04:01:56;6.90;99.90
24176;DHT22;12324;48.146;11.502;2023-04-01T04:04:23;6.90;99.90
24176;DHT22;12324;48.146;11.502;2023-04-01T04:06:50;6.90;99.90
24176;DHT22;12324;48.146;11.502;2023-04-01T04:09:17;6.80;99.90
24176;DHT22;12324;48.146;11.502;2023-04-01T04:11:44;6.80;99.90
24176;DHT22;12324;48.146;11.502;2023-04-01T04:14:10;6.80;99.90
24176;DHT22;12324;48.146;11.502;2023-04-01T04:16:37;6.90;99.90
24176;DHT22;12324;48.146;11.502;2023-04-01T04:19:04;6.90;99.90
24176;DHT22;12324;48.146;11.502;2023-04-01T04:21:31;6.90;99.90
24176;DHT22;12324;48.146;11.502;2023-04-01T04:24:02;6.90;99.90
24176;DHT22;12324;48.146;11.502;2023-04-01T04:26:28;7.00;99.90
24176;DHT22;12324;48.146;11.502;2023-04-01T04:28:55;7.00;99.90
24176;DHT22;12324;48.146;11.502;2023-04-01T04:31:24;7.00;99.90
24176;DHT22;12324;48.146;11.502;2023-04-01T04:33:51;7.00;99.90
24176;DHT22;12324;48.146;11.502;2023-04-01T04:36:18;7.00;99.90
24176;DHT22;12324;48.146;11.502;2023-04-01T04:38:46;7.00;99.90
24176;DHT22;12324;48.146;11.502;2023-04-01T04:41:14;7.10;99.90
24176;DHT22;12324;48.146;11.502;2023-04-01T04:43:42;7.10;99.90
24176;DHT22;12324;48.146;11.502;2023-04-01T04:46:09;7.20;99.90
24176;DHT22;12324;48.146;11.502;2023-04-01T04:48:36;7.20;99.90
24176;DHT22;12324;48.146;11.502;2023-04-01T04:51:03;7.20;99.90
24176;DHT22;12324;48.146;11.502;2023-04-01T04:53:30;7.20;99.90
24176;DHT22;12324;48.146;11.502;2023-04-01T04:55:56;7.20;99.90
24176;DHT22;12324;48.146;11.502;2023-04-01T04:58:23;7.20;99.90
24176;DHT22;12324;48.146;11.502;2023-04-01T05:00:50;7.20;99.90
24176;DHT22;12324;48.146;11.502;2023-04-01T05:03:16;7.20;99.90
24176;DHT22;12324;48.146;11.502;2023-04-01T05:05:53;7.30;99.90
24176;DHT22;12324;48.146;11.502;2023-04-01T05:08:20;7.40;99.90
24176;DHT22;12324;48.146;11.502;2023-04-01T05:10:47;7.40;99.90
24176;DHT22;12324;48.146;11.502;2023-04-01T05:13:13;7.40;99.90
24176;DHT22;12324;48.146;11.502;2023-04-01T05:15:40;7.50;99.90
24176;DHT22;12324;48.146;11.502;2023-04-01T05:18:07;7.50;99.90
24176;DHT22;12324;48.146;11.502;2023-04-01T05:20:34;7.60;99.90
24176;DHT22;12324;48.146;11.502;2023-04-01T05:23:00;7.60;99.90
24176;DHT22;12324;48.146;11.502;2023-04-01T05:25:27;7.60;99.90
24176;DHT22;12324;48.146;11.502;2023-04-01T05:27:54;7.60;99.90
24176;DHT22;12324;48.146;11.502;2023-04-01T05:30:21;7.60;99.90
24176;DHT22;12324;48.146;11.502;2023-04-01T05:32:47;7.60;99.90
24176;DHT22;12324;48.146;11.502;2023-04-01T05:35:14;7.60;99.90
24176;DHT22;12324;48.146;11.502;2023-04-01T05:37:41;7.60;99.90
24176;DHT22;12324;48.146;11.502;2023-04-01T05:40:08;7.60;99.90
24176;DHT22;12324;48.146;11.502;2023-04-01T05:42:35;7.60;99.90
24176;DHT22;12324;48.146;11.502;2023-04-01T05:45:04;7.60;99.90
24176;DHT22;12324;48.146;11.502;2023-04-01T05:47:31;7.60;99.90
24176;DHT22;12324;48.146;11.502;2023-04-01T05:49:58;7.60;99.90
24176;DHT22;12324;48.146;11.502;2023-04-01T05:52:24;7.70;99.90
24176;DHT22;12324;48.146;11.502;2023-04-01T05:54:51;7.70;99.90
24176;DHT22;12324;48.146;11.502;2023-04-01T05:57:18;7.70;99.90
24176;DHT22;12324;48.146;11.502;2023-04-01T05:59:45;7.70;99.90
24176;DHT22;12324;48.146;11.502;2023-04-01T06:02:12;7.70;99.90
24176;DHT22;12324;48.146;11.502;2023-04-01T06:04:40;7.70;99.90
24176;DHT22;12324;48.146;11.502;2023-04-01T06:07:14;7.70;99.90
24176;DHT22;12324;48.146;11.502;2023-04-01T06:09:42;7.80;99.90
24176;DHT22;12324;48.146;11.502;2023-04-01T06:15:47;7.80;99.90
24176;DHT22;12324;48.146;11.502;2023-04-01T06:18:45;7.80;99.90
24176;DHT22;12324;48.146;11.502;2023-04-01T06:21:48;7.80;99.90
24176;DHT22;12324;48.146;11.502;2023-04-01T06:24:41;7.90;99.90
24176;DHT22;12324;48.146;11.502;2023-04-01T06:31:01;8.00;99.90
24176;DHT22;12324;48.146;11.502;2023-04-01T06:42:16;8.10;99.90
24176;DHT22;12324;48.146;11.502;2023-04-01T06:48:16;8.20;99.90
24176;DHT22;12324;48.146;11.502;2023-04-01T06:54:21;8.30;99.90
24176;DHT22;12324;48.146;11.502;2023-04-01T06:56:54;8.40;99.90
24176;DHT22;12324;48.146;11.502;2023-04-01T06:59:28;8.50;99.90
24176;DHT22;12324;48.146;11.502;2023-04-01T07:02:23;8.60;99.90
24176;DHT22;12324;48.146;11.502;2023-04-01T07:04:51;8.60;99.90
24176;DHT22;12324;48.146;11.502;2023-04-01T07:07:39;8.60;99.90
24176;DHT22;12324;48.146;11.502;2023-04-01T07:10:31;8.70;99.90
24176;DHT22;12324;48.146;11.502;2023-04-01T07:13:00;8.70;99.90
24176;DHT22;12324;48.146;11.502;2023-04-01T07:15:36;8.60;99.90
24176;DHT22;12324;48.146;11.502;2023-04-01T07:18:40;8.60;99.90
24176;DHT22;12324;48.146;11.502;2023-04-01T07:21:22;8.60;99.90
24176;DHT22;12324;48.146;11.502;2023-04-01T07:23:50;8.70;99.90
24176;DHT22;12324;48.146;11.502;2023-04-01T07:26:24;8.80;99.90
24176;DHT22;12324;48.146;11.502;2023-04-01T07:28:52;8.90;99.90
24176;DHT22;12324;48.146;11.502;2023-04-01T07:34:23;9.00;99.90
24176;DHT22;12324;48.146;11.502;2023-04-01T08:37:11;9.20;99.90
24176;DHT22;12324;48.146;11.502;2023-04-01T08:39:44;10.00;99.90
24176;DHT22;12324;48.146;11.502;2023-04-01T08:53:06;10.10;99.90
24176;DHT22;12324;48.146;11.502;2023-04-01T08:58:32;10.40;99.90
24176;DHT22;12324;48.146;11.502;2023-04-01T09:07:01;10.30;99.90
24176;DHT22;12324;48.146;11.502;2023-04-01T09:14:58;10.50;99.90
24176;DHT22;12324;48.146;11.502;2023-04-01T09:26:22;10.90;99.90
24176;DHT22;12324;48.146;11.502;2023-04-01T10:58:04;10.90;99.90
24176;DHT22;12324;48.146;11.502;2023-04-01T11:11:40;10.40;99.90
24176;DHT22;12324;48.146;11.502;2023-04-01T11:39:05;9.90;99.90
24176;DHT22;12324;48.146;11.502;2023-04-01T12:14:16;8.40;99.90
24176;DHT22;12324;48.146;11.502;2023-04-01T12:20:01;8.50;99.90
24176;DHT22;12324;48.146;11.502;2023-04-01T12:30:49;8.20;99.90
24176;DHT22;12324;48.146;11.502;2023-04-01T12:39:00;8.20;99.90
24176;DHT22;12324;48.146;11.502;2023-04-01T12:42:27;8.20;99.90
24176;DHT22;12324;48.146;11.502;2023-04-01T12:45:18;8.20;99.90
24176;DHT22;12324;48.146;11.502;2023-04-01T12:48:15;8.30;99.90
24176;DHT22;12324;48.146;11.502;2023-04-01T12:53:41;8.20;99.90
24176;DHT22;12324;48.146;11.502;2023-04-01T13:02:12;8.20;99.90
24176;DHT22;12324;48.146;11.502;2023-04-01T13:08:05;8.30;99.90
24176;DHT22;12324;48.146;11.502;2023-04-01T13:16:31;8.30;99.90
24176;DHT22;12324;48.146;11.502;2023-04-01T13:19:13;8.30;99.90
24176;DHT22;12324;48.146;11.502;2023-04-01T13:22:20;8.20;99.90
24176;DHT22;12324;48.146;11.502;2023-04-01T13:24:47;8.20;99.90
24176;DHT22;12324;48.146;11.502;2023-04-01T13:27:54;8.20;99.90
24176;DHT22;12324;48.146;11.502;2023-04-01T13:32:59;8.20;99.90
24176;DHT22;12324;48.146;11.502;2023-04-01T13:52:46;8.10;99.90
24176;DHT22;12324;48.146;11.502;2023-04-01T13:58:29;8.20;99.90
24176;DHT22;12324;48.146;11.502;2023-04-01T14:01:27;8.30;99.90
24176;DHT22;12324;48.146;11.502;2023-04-01T14:12:25;8.50;99.90
24176;DHT22;12324;48.146;11.502;2023-04-01T14:20:31;8.60;99.90
24176;DHT22;12324;48.146;11.502;2023-04-01T14:31:34;8.80;99.90
24176;DHT22;12324;48.146;11.502;2023-04-01T14:45:06;9.20;99.90
24176;DHT22;12324;48.146;11.502;2023-04-01T14:47:53;8.90;99.90
24176;DHT22;12324;48.146;11.502;2023-04-01T14:55:31;8.90;99.90
24176;DHT22;12324;48.146;11.502;2023-04-01T15:09:37;8.80;99.90
24176;DHT22;12324;48.146;11.502;2023-04-01T15:12:26;8.80;99.90
24176;DHT22;12324;48.146;11.502;2023-04-01T15:14:59;8.70;99.90
24176;DHT22;12324;48.146;11.502;2023-04-01T15:17:47;8.70;99.90
24176;DHT22;12324;48.146;11.502;2023-04-01T15:23:31;8.80;99.90
24176;DHT22;12324;48.146;11.502;2023-04-01T15:26:21;8.80;99.90
24176;DHT22;12324;48.146;11.502;2023-04-01T15:34:49;9.10;99.90
24176;DHT22;12324;48.146;11.502;2023-04-01T15:37:36;9.20;99.90
24176;DHT22;12324;48.146;11.502;2023-04-01T15:40:20;9.30;99.90
24176;DHT22;12324;48.146;11.502;2023-04-01T16:01:45;9.70;99.90
24176;DHT22;12324;48.146;11.502;2023-04-01T16:04:31;9.70;99.90
24176;DHT22;12324;48.146;11.502;2023-04-01T16:07:30;9.70;99.90
24176;DHT22;12324;48.146;11.502;2023-04-01T16:13:22;9.70;99.90
24176;DHT22;12324;48.146;11.502;2023-04-01T16:16:31;9.80;99.90
24176;DHT22;12324;48.146;11.502;2023-04-01T16:22:20;9.80;99.90
24176;DHT22;12324;48.146;11.502;2023-04-01T16:25:14;9.70;99.90
24176;DHT22;12324;48.146;11.502;2023-04-01T16:28:05;9.70;99.90
24176;DHT22;12324;48.146;11.502;2023-04-01T16:30:40;9.70;99.90
24176;DHT22;12324;48.146;11.502;2023-04-01T16:36:01;9.60;99.90
24176;DHT22;12324;48.146;11.502;2023-04-01T16:38:50;9.60;99.90
24176;DHT22;12324;48.146;11.502;2023-04-01T16:41:24;9.40;99.90
24176;DHT22;12324;48.146;11.502;2023-04-01T16:44:20;9.50;99.90
24176;DHT22;12324;48.146;11.502;2023-04-01T17:21:16;9.40;99.90
24176;DHT22;12324;48.146;11.502;2023-04-01T17:23:51;9.20;99.90
24176;DHT22;12324;48.146;11.502;2023-04-01T17:26:26;9.10;99.90
24176;DHT22;12324;48.146;11.502;2023-04-01T17:32:09;9.10;99.90
24176;DHT22;12324;48.146;11.502;2023-04-01T17:37:55;9.10;99.90
24176;DHT22;12324;48.146;11.502;2023-04-01T17:40:32;9.10;99.90
24176;DHT22;12324;48.146;11.502;2023-04-01T17:43:05;9.10;99.90
24176;DHT22;12324;48.146;11.502;2023-04-01T17:46:36;9.10;99.90
24176;DHT22;12324;48.146;11.502;2023-04-01T17:48:54;9.10;99.90
24176;DHT22;12324;48.146;11.502;2023-04-01T17:51:35;9.10;99.90
24176;DHT22;12324;48.146;11.502;2023-04-01T17:56:49;9.00;99.90
24176;DHT22;12324;48.146;11.502;2023-04-01T17:59:39;9.00;99.90
24176;DHT22;12324;48.146;11.502;2023-04-01T18:03:06;9.00;99.90
24176;DHT22;12324;48.146;11.502;2023-04-01T18:13:42;9.00;99.90
24176;DHT22;12324;48.146;11.502;2023-04-01T18:19:22;9.10;99.90
24176;DHT22;12324;48.146;11.502;2023-04-01T18:21:54;9.10;99.90
24176;DHT22;12324;48.146;11.502;2023-04-01T18:24:29;9.10;99.90
24176;DHT22;12324;48.146;11.502;2023-04-01T18:27:10;9.10;99.90
24176;DHT22;12324;48.146;11.502;2023-04-01T18:39:57;8.80;99.90
24176;DHT22;12324;48.146;11.502;2023-04-01T18:45:19;8.80;99.90
24176;DHT22;12324;48.146;11.502;2023-04-01T18:50:54;8.70;99.90
24176;DHT22;12324;48.146;11.502;2023-04-01T18:53:42;8.80;99.90
24176;DHT22;12324;48.146;11.502;2023-04-01T18:56:35;8.70;99.90
24176;DHT22;12324;48.146;11.502;2023-04-01T18:59:15;8.80;99.90
24176;DHT22;12324;48.146;11.502;2023-04-01T19:02:00;8.80;99.90
24176;DHT22;12324;48.146;11.502;2023-04-01T19:04:43;8.70;99.90
24176;DHT22;12324;48.146;11.502;2023-04-01T19:07:41;8.60;99.90
24176;DHT22;12324;48.146;11.502;2023-04-01T19:13:23;8.70;99.90
24176;DHT22;12324;48.146;11.502;2023-04-01T19:21:41;8.50;99.90
24176;DHT22;12324;48.146;11.502;2023-04-01T19:24:22;8.40;99.90
24176;DHT22;12324;48.146;11.502;2023-04-01T19:27:37;8.50;99.90
24176;DHT22;12324;48.146;11.502;2023-04-01T19:35:44;8.40;99.90
24176;DHT22;12324;48.146;11.502;2023-04-01T19:38:39;8.30;99.90
24176;DHT22;12324;48.146;11.502;2023-04-01T19:44:41;8.20;99.90
24176;DHT22;12324;48.146;11.502;2023-04-01T19:47:35;8.10;99.90
24176;DHT22;12324;48.146;11.502;2023-04-01T19:55:47;8.00;99.90
24176;DHT22;12324;48.146;11.502;2023-04-01T20:00:53;8.00;99.90
24176;DHT22;12324;48.146;11.502;2023-04-01T20:06:22;7.90;99.90
24176;DHT22;12324;48.146;11.502;2023-04-01T20:11:46;7.80;99.90
24176;DHT22;12324;48.146;11.502;2023-04-01T20:14:40;7.80;99.90
24176;DHT22;12324;48.146;11.502;2023-04-01T20:17:17;7.70;99.90
24176;DHT22;12324;48.146;11.502;2023-04-01T20:20:01;7.70;99.90
24176;DHT22;12324;48.146;11.502;2023-04-01T20:25:24;7.60;99.90
24176;DHT22;12324;48.146;11.502;2023-04-01T20:36:09;7.50;99.90
24176;DHT22;12324;48.146;11.502;2023-04-01T20:45:01;7.60;99.90
24176;DHT22;12324;48.146;11.502;2023-04-01T20:53:23;7.60;99.90
24176;DHT22;12324;48.146;11.502;2023-04-01T21:13:06;7.40;99.90
24176;DHT22;12324;48.146;11.502;2023-04-01T21:16:10;7.50;99.90
24176;DHT22;12324;48.146;11.502;2023-04-01T21:19:02;7.50;99.90
24176;DHT22;12324;48.146;11.502;2023-04-01T21:28:09;7.50;99.90
24176;DHT22;12324;48.146;11.502;2023-04-01T21:38:42;7.50;99.90
24176;DHT22;12324;48.146;11.502;2023-04-01T21:44:20;7.60;99.90
24176;DHT22;12324;48.146;11.502;2023-04-01T21:50:35;7.60;99.90
24176;DHT22;12324;48.146;11.502;2023-04-01T22:01:56;7.60;99.90
24176;DHT22;12324;48.146;11.502;2023-04-01T22:04:44;7.60;99.90
24176;DHT22;12324;48.146;11.502;2023-04-01T22:07:19;7.60;99.90
24176;DHT22;12324;48.146;11.502;2023-04-01T22:09:58;7.60;99.90
24176;DHT22;12324;48.146;11.502;2023-04-01T22:12:53;7.60;99.90
24176;DHT22;12324;48.146;11.502;2023-04-01T22:18:04;7.60;99.90
24176;DHT22;12324;48.146;11.502;2023-04-01T22:20:44;7.60;99.90
24176;DHT22;12324;48.146;11.502;2023-04-01T22:26:05;7.60;99.90
24176;DHT22;12324;48.146;11.502;2023-04-01T22:28:36;7.60;99.90
24176;DHT22;12324;48.146;11.502;2023-04-01T22:31:06;7.60;99.90
24176;DHT22;12324;48.146;11.502;2023-04-01T22:39:37;7.70;99.90
24176;DHT22;12324;48.146;11.502;2023-04-01T22:47:34;7.70;99.90
24176;DHT22;12324;48.146;11.502;2023-04-01T22:50:26;7.70;99.90
24176;DHT22;12324;48.146;11.502;2023-04-01T22:56:05;7.70;99.90
24176;DHT22;12324;48.146;11.502;2023-04-01T22:58:38;7.80;99.90
24176;DHT22;12324;48.146;11.502;2023-04-01T23:01:07;7.70;99.90
24176;DHT22;12324;48.146;11.502;2023-04-01T23:03:41;7.70;99.90
24176;DHT22;12324;48.146;11.502;2023-04-01T23:06:17;7.60;99.90
24176;DHT22;12324;48.146;11.502;2023-04-01T23:11:26;7.70;99.90
24176;DHT22;12324;48.146;11.502;2023-04-01T23:17:19;7.70;99.90
24176;DHT22;12324;48.146;11.502;2023-04-01T23:25:38;7.60;99.90
24176;DHT22;12324;48.146;11.502;2023-04-01T23:30:56;7.60;99.90
24176;DHT22;12324;48.146;11.502;2023-04-01T23:36:10;7.60;99.90
24176;DHT22;12324;48.146;11.502;2023-04-01T23:38:40;7.60;99.90
24176;DHT22;12324;48.146;11.502;2023-04-01T23:41:23;7.50;99.90
24176;DHT22;12324;48.146;11.502;2023-04-01T23:46:25;7.60;99.90
24176;DHT22;12324;48.146;11.502;2023-04-01T23:48:52;7.60;99.90
24176;DHT22;12324;48.146;11.502;2023-04-01T23:51:25;7.60;99.90
24176;DHT22;12324;48.146;11.502;2023-04-01T23:54:31;7.60;99.90
24176;DHT22;12324;48.146;11.502;2023-04-01T23:56:55;7.50;99.90
24176;DHT22;12324;48.146;11.502;2023-04-01T23:59:35;7.50;99.90
